^^
Grace C. Lehan Memorial Weather Station Historical Data
Daily Summary for January 18, 2022 Units:  Metric    English   Both
Daily Weekly Monthly Yearly
  High: Low: Average:
Temperature: 0.8 °C -2.3 °C -0.8 °C
Dew Point: -3.3 °C -8.2 °C -5.8 °C
Humidity: 79% 63% 69%
Wind Speed: 30.6km/h 3.4km/h 13.2km/h
Wind Gust: 48.3km/h - -
Wind- - WNW
Pressure: 1003.9 hPa 992.1 hPa -
Precipitation: 0 mm    
 
 
Tabular Data for January 18, 2022
Time Temperature Dew Point Pressure Wind Wind Speed Wind Gust Humidity Rainfall Rate (Hourly) solar
00:04 0.8 °C -3.8 °C 992.1 hPa WNW 14 km/h 35.4 km/h 70.9% 0 mm 0 W/m2
00:09 0.8 °C -4.1 °C 992.4 hPa WNW 15.4 km/h 35.4 km/h 70% 0 mm 0 W/m2
00:14 0.7 °C -4.1 °C 992.4 hPa WNW 14.8 km/h 35.4 km/h 70% 0 mm 0 W/m2
00:19 0.7 °C -4.3 °C 992.4 hPa WNW 14.3 km/h 35.4 km/h 69.2% 0 mm 0 W/m2
00:24 0.7 °C -4.2 °C 992.4 hPa WNW 5.6 km/h 35.4 km/h 70% 0 mm 0 W/m2
00:29 0.6 °C -4.1 °C 992.4 hPa WNW 9.2 km/h 35.4 km/h 70.6% 0 mm 0 W/m2
00:34 0.5 °C -4.2 °C 992.8 hPa WNW 11.7 km/h 35.4 km/h 71% 0 mm 0 W/m2
00:39 0.4 °C -4.1 °C 992.8 hPa WNW 12.9 km/h 24.1 km/h 71.8% 0 mm 0 W/m2
00:44 0.3 °C -4.1 °C 992.8 hPa WNW 12.2 km/h 27.4 km/h 72.6% 0 mm 0 W/m2
00:49 0.2 °C -3.9 °C 993.1 hPa WNW 18 km/h 48.3 km/h 73.7% 0 mm 0 W/m2
00:54 0.1 °C -3.8 °C 993.1 hPa WNW 18.8 km/h 48.3 km/h 75% 0 mm 0 W/m2
00:59 0.1 °C -3.7 °C 993.1 hPa WNW 13.2 km/h 48.3 km/h 75.8% 0 mm 0 W/m2
01:04 0 °C -3.6 °C 993.5 hPa WNW 15 km/h 48.3 km/h 76.6% 0 mm 0 W/m2
01:09 -0.1 °C -3.5 °C 993.5 hPa WNW 9.3 km/h 25.7 km/h 77.5% 0 mm 0 W/m2
01:14 -0.1 °C -3.4 °C 993.8 hPa West 5.5 km/h 25.7 km/h 78% 0 mm 0 W/m2
01:19 -0.1 °C -3.4 °C 993.8 hPa WNW 5.8 km/h 25.7 km/h 78.4% 0 mm 0 W/m2
01:24 -0.2 °C -3.3 °C 993.8 hPa WNW 4.3 km/h 25.7 km/h 79% 0 mm 0 W/m2
01:29 -0.2 °C -3.4 °C 993.8 hPa WNW 11.6 km/h 25.7 km/h 79% 0 mm 0 W/m2
01:34 -0.2 °C -3.4 °C 994.1 hPa WNW 11.1 km/h 25.7 km/h 79% 0 mm 0 W/m2
01:39 -0.2 °C -3.4 °C 994.1 hPa WNW 10.5 km/h 25.7 km/h 79% 0 mm 0 W/m2
01:44 -0.2 °C -3.4 °C 994.1 hPa WNW 9.7 km/h 25.7 km/h 79% 0 mm 0 W/m2
01:49 -0.2 °C -3.4 °C 994.1 hPa NW 10.6 km/h 30.6 km/h 79% 0 mm 0 W/m2
01:54 -0.2 °C -3.7 °C 994.5 hPa WNW 13.8 km/h 30.6 km/h 77.7% 0 mm 0 W/m2
01:59 -0.2 °C -3.9 °C 994.8 hPa WNW 17.7 km/h 33.8 km/h 76.1% 0 mm 0 W/m2
02:04 -0.1 °C -4 °C 994.8 hPa WNW 10.3 km/h 35.4 km/h 75% 0 mm 0 W/m2
02:09 -0.1 °C -4.1 °C 995.1 hPa WNW 13 km/h 35.4 km/h 74.2% 0 mm 0 W/m2
02:14 -0.1 °C -4.4 °C 995.1 hPa WNW 14.5 km/h 35.4 km/h 72.4% 0 mm 0 W/m2
02:19 -0.1 °C -4.6 °C 995.1 hPa WNW 7.7 km/h 35.4 km/h 72% 0 mm 0 W/m2
02:24 -0.2 °C -4.7 °C 995.5 hPa WNW 6.4 km/h 35.4 km/h 71.6% 0 mm 0 W/m2
02:29 -0.2 °C -4.8 °C 995.5 hPa WNW 4.7 km/h 35.4 km/h 71% 0 mm 0 W/m2
02:34 -0.3 °C -4.9 °C 995.8 hPa NW 5.8 km/h 35.4 km/h 70.9% 0 mm 0 W/m2
02:39 -0.3 °C -5.1 °C 995.8 hPa NW 6 km/h 24.1 km/h 70% 0 mm 0 W/m2
02:44 -0.4 °C -5.4 °C 995.8 hPa WNW 16.1 km/h 37 km/h 68.9% 0 mm 0 W/m2
02:49 -0.4 °C -5.6 °C 996.2 hPa NW 9.8 km/h 37 km/h 68.5% 0 mm 0 W/m2
02:54 -0.6 °C -5.6 °C 996.2 hPa NW 7.4 km/h 37 km/h 68.5% 0 mm 0 W/m2
02:59 -0.7 °C -5.8 °C 996.2 hPa WNW 10.1 km/h 37 km/h 68% 0 mm 0 W/m2
03:04 -0.7 °C -5.8 °C 996.5 hPa WNW 11.1 km/h 37 km/h 68% 0 mm 0 W/m2
03:09 -0.7 °C -5.9 °C 996.5 hPa WNW 14 km/h 25.7 km/h 68% 0 mm 0 W/m2
03:14 -0.7 °C -5.9 °C 996.5 hPa WNW 18.2 km/h 33.8 km/h 68% 0 mm 0 W/m2
03:19 -0.8 °C -5.9 °C 996.8 hPa WNW 13.8 km/h 35.4 km/h 68% 0 mm 0 W/m2
03:24 -0.8 °C -5.9 °C 996.8 hPa WNW 16.7 km/h 35.4 km/h 68% 0 mm 0 W/m2
03:29 -0.8 °C -6 °C 996.8 hPa NW 12.2 km/h 35.4 km/h 67.5% 0 mm 0 W/m2
03:34 -0.8 °C -6 °C 997.2 hPa WNW 11.4 km/h 35.4 km/h 68% 0 mm 0 W/m2
03:39 -0.8 °C -6 °C 997.2 hPa WNW 5.8 km/h 20.9 km/h 68% 0 mm 0 W/m2
03:44 -0.9 °C -6 °C 997.2 hPa WNW 3.4 km/h 20.9 km/h 68.2% 0 mm 0 W/m2
03:49 -0.9 °C -5.9 °C 997.5 hPa WNW 10 km/h 27.4 km/h 69% 0 mm 0 W/m2
03:54 -0.9 °C -6.1 °C 997.5 hPa NW 14.3 km/h 32.2 km/h 68.3% 0 mm 0 W/m2
03:59 -0.9 °C -6.1 °C 997.5 hPa WNW 14 km/h 35.4 km/h 68% 0 mm 0 W/m2
04:00 -0.9 °C -6.1 °C 997.5 hPa WNW 30.6 km/h 35.4 km/h 68% 0 mm 0 W/m2
04:09 -0.9 °C -6.1 °C 997.9 hPa NW 11.9 km/h 20.9 km/h 68% 0 mm 0 W/m2
04:14 -0.9 °C -6.1 °C 998.2 hPa WNW 13.5 km/h 30.6 km/h 68% 0 mm 0 W/m2
04:19 -0.9 °C -6.2 °C 998.2 hPa WNW 18 km/h 32.2 km/h 67.3% 0 mm 0 W/m2
04:24 -0.9 °C -6.3 °C 998.2 hPa NW 9.7 km/h 32.2 km/h 67% 0 mm 0 W/m2
04:29 -0.9 °C -6.1 °C 998.5 hPa NW 6.3 km/h 32.2 km/h 68% 0 mm 0 W/m2
04:34 -1 °C -6.2 °C 998.5 hPa WNW 9.5 km/h 32.2 km/h 68% 0 mm 0 W/m2
04:39 -1.1 °C -6.2 °C 998.9 hPa NW 14 km/h 27.4 km/h 68% 0 mm 0 W/m2
04:44 -1.1 °C -6.4 °C 998.9 hPa WNW 18.2 km/h 33.8 km/h 67.1% 0 mm 0 W/m2
04:49 -1.1 °C -6.4 °C 999.2 hPa WNW 11.3 km/h 33.8 km/h 67% 0 mm 0 W/m2
04:54 -1.2 °C -6.6 °C 999.2 hPa NW 11.3 km/h 33.8 km/h 66.7% 0 mm 0 W/m2
04:59 -1.2 °C -6.7 °C 999.2 hPa NW 20.4 km/h 33.8 km/h 66% 0 mm 0 W/m2
05:04 -1.3 °C -6.8 °C 999.5 hPa WNW 12.9 km/h 33.8 km/h 65.7% 0 mm 0 W/m2
05:09 -1.3 °C -7.1 °C 999.5 hPa WNW 14.6 km/h 38.6 km/h 65% 0 mm 0 W/m2
05:14 -1.4 °C -7.1 °C 999.9 hPa WNW 14.2 km/h 38.6 km/h 65% 0 mm 0 W/m2
05:19 -1.4 °C -7.2 °C 999.9 hPa NW 20.6 km/h 38.6 km/h 65% 0 mm 0 W/m2
05:24 -1.5 °C -7.3 °C 999.9 hPa NW 17.7 km/h 38.6 km/h 64.6% 0 mm 0 W/m2
05:29 -1.6 °C -7.3 °C 1000.2 hPa WNW 8.4 km/h 38.6 km/h 64.8% 0 mm 0 W/m2
05:34 -1.6 °C -7.3 °C 1000.6 hPa WNW 14.6 km/h 38.6 km/h 65% 0 mm 0 W/m2
05:39 -1.7 °C -7.4 °C 1000.6 hPa WNW 13.2 km/h 35.4 km/h 64.7% 0 mm 0 W/m2
05:44 -1.7 °C -7.6 °C 1000.9 hPa WNW 13.8 km/h 35.4 km/h 64% 0 mm 0 W/m2
05:49 -1.7 °C -7.6 °C 1000.9 hPa WNW 16.1 km/h 35.4 km/h 64.3% 0 mm 0 W/m2
05:54 -1.7 °C -7.5 °C 1000.9 hPa WNW 12.6 km/h 35.4 km/h 64.6% 0 mm 0 W/m2
05:59 -1.7 °C -7.6 °C 1001.2 hPa NW 17.1 km/h 35.4 km/h 64.1% 0 mm 0 W/m2
06:04 -1.7 °C -7.8 °C 1001.2 hPa WNW 17.4 km/h 35.4 km/h 63.3% 0 mm 0 W/m2
06:09 -1.7 °C -7.8 °C 1001.6 hPa WNW 12.7 km/h 29 km/h 63% 0 mm 0 W/m2
06:14 -1.7 °C -7.8 °C 1001.9 hPa WNW 15 km/h 43.5 km/h 63% 0 mm 0 W/m2
06:19 -1.8 °C -7.9 °C 1002.3 hPa WNW 16.4 km/h 43.5 km/h 63.1% 0 mm 0 W/m2
06:24 -1.8 °C -7.9 °C 1002.3 hPa NW 18.2 km/h 43.5 km/h 63.1% 0 mm 0 W/m2
06:29 -1.8 °C -7.9 °C 1002.6 hPa WNW 17.4 km/h 43.5 km/h 63% 0 mm 0 W/m2
06:34 -1.9 °C -7.9 °C 1002.6 hPa WNW 16.4 km/h 43.5 km/h 63.4% 0 mm 0 W/m2
06:39 -2 °C -8.1 °C 1002.9 hPa WNW 15.8 km/h 33.8 km/h 63.2% 0 mm 0 W/m2
06:44 -2.1 °C -7.9 °C 1002.9 hPa WNW 15 km/h 38.6 km/h 64% 0 mm 0 W/m2
06:49 -2.1 °C -8 °C 1002.9 hPa WNW 20.1 km/h 38.6 km/h 63.7% 0 mm 0 W/m2
06:54 -2.1 °C -8.2 °C 1002.9 hPa WNW 16.7 km/h 38.6 km/h 63.2% 0 mm 0 W/m2
06:59 -2.1 °C -8.2 °C 1003.3 hPa WNW 18.5 km/h 38.6 km/h 63.2% 0 mm 0 W/m2
07:04 -2.2 °C -8.2 °C 1003.3 hPa WNW 16.9 km/h 38.6 km/h 63.3% 0 mm 0 W/m2
07:09 -2.2 °C -8.1 °C 1003.6 hPa WNW 15 km/h 37 km/h 63.9% 0 mm 0 W/m2
07:14 -2.2 °C -8.1 °C 1003.6 hPa WNW 20.4 km/h 37 km/h 63.8% 0 mm 0 W/m2
07:19 -2.3 °C -8.2 °C 1003.9 hPa NW 11.6 km/h 37 km/h 64% 0 mm 7 W/m2
07:23 -2.3 °C -8.2 °C 1003.9 hPa WNW 13.5 km/h 37 km/h 64% 0 mm 7 W/m2
Hartford County Weather
Compliments of Weather Underground - 4 mb